Time;durP1;ratioP1;P1;durP2;ratioP2;P2;SDS_P1;SDS_P2;PMS_P1;PMS_P2;Temp;Humidity;BMP_temperature;BMP_pressure;BME280_temperature;BME280_humidity;BME280_pressure;Samples;Min_cycle;Max_cycle;Signal;HPM_P1;HPM_P2
2021/12/12 00:00:28;;;;;;;5.35;3.55;;;;;;;6.90;100.00;92998.53;5074935;28;20029;-88
2021/12/12 00:02:59;;;;;;;6.10;4.35;;;;;;;7.00;100.00;92985.47;5075918;28;20033;-89
2021/12/12 00:05:31;;;;;;;6.18;4.00;;;;;;;7.29;100.00;92981.34;5075517;28;20426;-89
2021/12/12 00:07:59;;;;;;;9.05;4.05;;;;;;;7.25;100.00;92984.31;5075307;28;20406;-88
2021/12/12 00:10:27;;;;;;;8.07;5.70;;;;;;;6.85;100.00;93010.78;5075020;28;20024;-88
2021/12/12 00:12:57;;;;;;;9.13;5.88;;;;;;;6.92;100.00;93023.03;5075118;28;20035;-86
2021/12/12 00:15:23;;;;;;;7.50;5.70;;;;;;;7.13;100.00;93034.19;5074980;28;20028;-88
2021/12/12 00:17:49;;;;;;;8.23;5.97;;;;;;;7.14;100.00;93032.22;5074591;28;20024;-88
2021/12/12 00:20:19;;;;;;;12.07;6.20;;;;;;;7.13;100.00;93026.09;5073501;28;20024;-86
2021/12/12 00:22:44;;;;;;;12.85;6.47;;;;;;;7.17;100.00;93020.44;5075223;28;20028;-87
2021/12/12 00:25:11;;;;;;;9.57;6.50;;;;;;;7.11;100.00;93034.69;5074470;28;20519;-87
2021/12/12 00:27:37;;;;;;;9.35;6.55;;;;;;;7.41;100.00;93041.38;5074326;28;20064;-88
2021/12/12 00:30:05;;;;;;;10.43;7.13;;;;;;;6.83;100.00;93061.81;5074086;28;20032;-86
2021/12/12 00:32:36;;;;;;;10.77;7.15;;;;;;;6.69;100.00;93055.47;5073351;28;20056;-85
2021/12/12 00:35:05;;;;;;;11.90;7.03;;;;;;;6.94;100.00;93059.06;5074255;28;20034;-84
2021/12/12 00:37:32;;;;;;;12.75;7.80;;;;;;;6.85;100.00;93053.94;5074536;28;20020;-85
2021/12/12 00:40:09;;;;;;;15.70;9.05;;;;;;;6.69;100.00;93054.75;5074488;28;20024;-85
2021/12/12 00:42:37;;;;;;;12.13;8.50;;;;;;;6.83;100.00;93059.09;5074091;28;20085;-86
2021/12/12 00:45:08;;;;;;;12.93;8.32;;;;;;;6.78;100.00;93051.78;5073997;28;20460;-85
2021/12/12 00:47:34;;;;;;;11.57;8.60;;;;;;;6.83;100.00;93067.19;5073326;28;20388;-86
2021/12/12 00:50:00;;;;;;;13.85;8.77;;;;;;;6.86;100.00;93079.69;5072759;28;20025;-85
2021/12/12 00:52:25;;;;;;;20.08;10.73;;;;;;;6.31;100.00;93081.31;5074282;28;20032;-86
2021/12/12 00:54:51;;;;;;;19.88;10.27;;;;;;;6.17;100.00;93077.66;5074398;28;20035;-85
2021/12/12 00:57:20;;;;;;;16.98;9.70;;;;;;;6.31;100.00;93081.31;5072945;28;20025;-85
2021/12/12 00:59:47;;;;;;;14.88;11.05;;;;;;;6.25;100.00;93100.91;5072718;28;20177;-85
2021/12/12 01:02:20;;;;;;;16.00;10.80;;;;;;;5.91;100.00;93100.16;5074318;28;20032;-85
2021/12/12 01:04:49;;;;;;;22.35;15.30;;;;;;;6.03;100.00;93090.16;5074323;28;20028;-85
2021/12/12 01:07:20;;;;;;;21.17;12.43;;;;;;;6.28;100.00;93082.28;5073943;28;20086;-85
2021/12/12 01:09:55;;;;;;;17.98;12.60;;;;;;;6.09;100.00;93078.16;5074045;28;20476;-86
2021/12/12 01:12:26;;;;;;;18.20;12.88;;;;;;;5.97;100.00;93097.47;5073892;28;20062;-85
2021/12/12 01:15:01;;;;;;;17.20;13.27;;;;;;;6.01;100.00;93082.59;5073915;28;20035;-86
2021/12/12 01:17:37;;;;;;;18.75;14.70;;;;;;;6.31;100.00;93103.59;5074152;28;20073;-85
2021/12/12 01:20:23;;;;;;;18.40;13.35;;;;;;;6.29;100.00;93105.31;5074780;28;20028;-85
2021/12/12 01:22:53;;;;;;;15.80;12.07;;;;;;;6.43;100.00;93115.09;5074292;28;20036;-85
2021/12/12 01:25:31;;;;;;;13.68;11.15;;;;;;;6.47;100.00;93110.19;5073694;28;20028;-85
2021/12/12 01:27:57;;;;;;;13.13;10.13;;;;;;;6.44;100.00;93113.88;5073754;28;20043;-85
2021/12/12 01:30:24;;;;;;;13.10;10.02;;;;;;;6.31;100.00;93097.47;5073672;28;20036;-85
2021/12/12 01:32:51;;;;;;;15.77;11.25;;;;;;;6.37;100.00;93103.59;5071821;28;20131;-85
2021/12/12 01:35:18;;;;;;;16.08;11.85;;;;;;;6.14;100.00;93098.22;5073349;28;20060;-85
2021/12/12 01:40:40;;;;;;;16.35;12.50;;;;;;;6.26;100.00;93102.38;5066414;28;20059;-85
2021/12/12 01:43:11;;;;;;;22.92;13.60;;;;;;;6.09;100.00;93096.28;5078740;28;20085;-83
2021/12/12 01:45:47;;;;;;;17.50;12.77;;;;;;;6.07;100.00;93091.38;5082359;28;20048;-83
2021/12/12 01:48:19;;;;;;;16.17;10.88;;;;;;;5.88;100.00;93109.97;5083529;28;20020;-82
2021/12/12 01:50:58;;;;;;;14.50;11.05;;;;;;;5.82;100.00;93125.41;5082257;28;20086;-83
2021/12/12 01:53:27;;;;;;;8.57;6.28;;;;;;;5.88;100.00;93126.13;5078005;28;20035;-84
2021/12/12 01:56:06;;;;;;;3.22;2.30;;;;;;;5.91;100.00;93110.94;5077743;28;20025;-85
2021/12/12 01:58:35;;;;;;;4.82;1.40;;;;;;;5.52;100.00;93123.16;5076675;28;20089;-83
2021/12/12 02:01:07;;;;;;;1.60;0.93;;;;;;;5.25;100.00;93130.66;5077043;28;20028;-84
2021/12/12 02:03:36;;;;;;;1.70;1.30;;;;;;;5.10;100.00;93130.13;5077239;28;20480;-84
2021/12/12 02:06:06;;;;;;;2.35;1.10;;;;;;;5.13;100.00;93098.84;5075921;28;20457;-82
2021/12/12 02:08:33;;;;;;;1.10;0.90;;;;;;;5.25;100.00;93121.88;5077051;28;20035;-83
2021/12/12 02:11:04;;;;;;;2.33;1.00;;;;;;;5.59;100.00;93130.75;5075693;28;20082;-83
2021/12/12 02:13:32;;;;;;;2.03;1.10;;;;;;;5.79;100.00;93147.16;5076874;28;20024;-83
2021/12/12 02:15:59;;;;;;;1.50;1.00;;;;;;;5.78;100.00;93151.81;5076839;28;20020;-83
2021/12/12 02:18:33;;;;;;;2.17;1.10;;;;;;;5.63;100.00;93121.69;5076909;28;20022;-83
2021/12/12 02:21:27;;;;;;;2.53;1.40;;;;;;;5.71;100.00;93126.13;5076984;28;20020;-84
2021/12/12 02:37:55;;;;;;;1.73;0.93;;;;;;;6.05;100.00;93171.19;5082116;28;20054;-84
2021/12/12 02:40:31;;;;;;;0.70;0.70;;;;;;;6.07;100.00;93171.47;5092332;28;20029;-83
2021/12/12 02:42:57;;;;;;;3.53;1.10;;;;;;;6.19;100.00;93172.19;5077641;28;20078;-84
2021/12/12 02:45:24;;;;;;;2.38;1.60;;;;;;;6.19;100.00;93178.31;5075785;28;20540;-84
2021/12/12 02:47:57;;;;;;;2.50;1.45;;;;;;;6.20;100.00;93176.34;5076322;28;20035;-83
2021/12/12 02:50:29;;;;;;;3.45;1.40;;;;;;;6.13;100.00;93179.53;5076374;28;20468;-85
2021/12/12 02:53:05;;;;;;;2.65;1.50;;;;;;;6.12;100.00;93194.22;5077537;28;20119;-84
2021/12/12 02:55:35;;;;;;;2.88;1.52;;;;;;;6.28;100.00;93185.41;5082699;28;20036;-83
2021/12/12 02:58:04;;;;;;;3.83;1.70;;;;;;;6.49;100.00;93180.50;5091321;28;20032;-83
2021/12/12 03:00:36;;;;;;;2.75;1.48;;;;;;;6.22;100.00;93185.41;5093979;28;20035;-81
2021/12/12 03:03:01;;;;;;;2.15;1.60;;;;;;;6.21;100.00;93185.91;5090221;28;20020;-84
2021/12/12 03:05:35;;;;;;;2.70;1.48;;;;;;;5.94;100.00;93179.97;5086870;28;20028;-81
2021/12/12 03:08:00;;;;;;;2.80;1.50;;;;;;;5.65;100.00;93192.66;5089784;28;20113;-83
2021/12/12 03:10:30;;;;;;;4.13;1.60;;;;;;;5.83;100.00;93196.84;5077168;28;20106;-83
2021/12/12 03:12:56;;;;;;;4.57;1.55;;;;;;;6.14;100.00;93203.28;5076323;28;20036;-84
2021/12/12 03:15:26;;;;;;;3.08;1.55;;;;;;;5.92;100.00;93199.31;5075217;28;20032;-84
2021/12/12 03:17:56;;;;;;;2.78;1.70;;;;;;;6.00;100.00;93201.56;5075788;28;20090;-85
2021/12/12 03:20:31;;;;;;;3.58;1.45;;;;;;;5.97;100.00;93202.50;5075473;28;20449;-85
2021/12/12 03:23:05;;;;;;;9.07;6.40;;;;;;;5.86;100.00;93212.06;5075874;28;20063;-85
2021/12/12 03:25:33;;;;;;;14.75;9.65;;;;;;;6.08;100.00;93218.69;5075546;28;20111;-85
2021/12/12 03:27:59;;;;;;;12.95;10.13;;;;;;;5.97;100.00;93221.34;5075321;28;20081;-84
2021/12/12 03:30:25;;;;;;;13.00;10.40;;;;;;;6.01;100.00;93224.56;5075594;28;20489;-85
2021/12/12 03:32:51;;;;;;;14.85;10.70;;;;;;;5.79;100.00;93233.31;5075089;28;20063;-85
2021/12/12 03:35:17;;;;;;;15.48;10.30;;;;;;;5.44;100.00;93239.81;5075676;28;20032;-85
2021/12/12 03:37:43;;;;;;;12.68;9.98;;;;;;;4.94;100.00;93236.41;5075224;28;20377;-84
2021/12/12 03:40:20;;;;;;;11.57;10.25;;;;;;;4.83;100.00;93252.47;5075113;28;20027;-84
2021/12/12 03:42:48;;;;;;;9.35;6.80;;;;;;;4.71;100.00;93262.41;5075340;28;20028;-84
2021/12/12 03:45:14;;;;;;;7.30;6.22;;;;;;;4.66;100.00;93265.78;5074317;28;20070;-84
2021/12/12 03:47:46;;;;;;;8.27;4.45;;;;;;;4.67;100.00;93267.25;5075460;28;20056;-84
2021/12/12 03:50:21;;;;;;;5.07;4.15;;;;;;;4.69;100.00;93276.31;5075627;28;20024;-84
2021/12/12 03:52:47;;;;;;;6.35;5.28;;;;;;;4.50;100.00;93285.91;5075303;28;20040;-83
2021/12/12 03:55:15;;;;;;;7.57;5.10;;;;;;;4.79;100.00;93284.94;5074834;28;20055;-84
2021/12/12 03:57:41;;;;;;;9.40;5.60;;;;;;;4.88;100.00;93282.06;5074840;28;20365;-85
2021/12/12 04:00:13;;;;;;;7.90;4.50;;;;;;;5.00;100.00;93284.81;5073831;28;20029;-83
2021/12/12 04:02:38;;;;;;;6.28;3.70;;;;;;;4.67;100.00;93302.19;5075084;28;20028;-85
2021/12/12 04:05:05;;;;;;;5.15;3.92;;;;;;;4.37;100.00;93300.47;5074709;28;20092;-84
2021/12/12 04:07:32;;;;;;;4.82;3.10;;;;;;;4.54;100.00;93314.06;5073715;28;20161;-85
2021/12/12 04:09:58;;;;;;;2.97;2.30;;;;;;;4.68;100.00;93309.06;5074672;28;20028;-84
2021/12/12 04:12:25;;;;;;;3.53;2.47;;;;;;;4.54;100.00;93311.38;5074586;28;20051;-85
2021/12/12 04:14:53;;;;;;;3.33;2.63;;;;;;;4.73;100.00;93322.53;5074688;28;20035;-84
2021/12/12 04:17:25;;;;;;;4.90;2.45;;;;;;;4.55;100.00;93333.59;5074692;28;20028;-84
2021/12/12 04:19:54;;;;;;;4.55;2.67;;;;;;;4.15;100.00;93341.28;5074943;28;20028;-83
2021/12/12 04:22:20;;;;;;;4.20;3.30;;;;;;;4.17;100.00;93352.31;5073344;28;20457;-83
2021/12/12 04:24:55;;;;;;;3.53;2.83;;;;;;;4.08;100.00;93365.88;5074274;28;20024;-84
2021/12/12 04:27:23;;;;;;;4.43;2.67;;;;;;;4.39;100.00;93362.53;5074638;28;20437;-84
2021/12/12 04:29:51;;;;;;;4.88;2.67;;;;;;;4.34;100.00;93346.38;5074209;28;20523;-84
2021/12/12 04:32:26;;;;;;;3.42;2.67;;;;;;;4.35;100.00;93361.25;5073791;28;20041;-83
2021/12/12 04:34:58;;;;;;;3.08;2.53;;;;;;;4.26;100.00;93372.19;5074365;28;20025;-84
2021/12/12 04:37:29;;;;;;;4.05;3.08;;;;;;;4.37;100.00;93380.34;5073009;28;20435;-84
2021/12/12 04:39:58;;;;;;;3.10;2.50;;;;;;;4.29;100.00;93382.69;5074525;28;20029;-83
2021/12/12 04:42:27;;;;;;;3.42;2.55;;;;;;;4.34;100.00;93395.44;5073816;28;20527;-84
2021/12/12 04:45:06;;;;;;;3.22;2.25;;;;;;;4.12;100.00;93385.22;5073719;28;20480;-84
2021/12/12 04:50:42;;;;;;;;;;;;;;;3.27;100.00;93404.84;5074302;28;20043;-83
2021/12/12 04:53:17;;;;;;;3.00;1.90;;;;;;;3.22;100.00;93398.22;5074074;28;19940;-84
2021/12/12 04:56:01;;;;;;;3.83;2.03;;;;;;;3.11;100.00;93422.16;5072960;28;20358;-83
2021/12/12 04:58:36;;;;;;;3.13;2.20;;;;;;;3.11;100.00;93408.75;5074104;28;20440;-84
2021/12/12 05:01:09;;;;;;;2.65;2.00;;;;;;;2.97;100.00;93416.34;5072543;28;20033;-83
2021/12/12 05:03:46;;;;;;;2.33;1.92;;;;;;;2.94;100.00;93433.34;5073536;28;20024;-83
2021/12/12 05:06:36;;;;;;;3.35;2.00;;;;;;;2.81;100.00;93430.94;5073640;28;20024;-84
2021/12/12 05:09:11;;;;;;;2.42;1.75;;;;;;;3.19;100.00;93440.09;5073633;28;20032;-83
2021/12/12 05:12:02;;;;;;;2.58;1.92;;;;;;;3.24;100.00;93436.00;5073205;28;20028;-83
2021/12/12 05:14:33;;;;;;;2.72;1.80;;;;;;;3.07;100.00;93441.13;5073926;28;20456;-83
2021/12/12 05:17:05;;;;;;;;;;;;;;;3.27;100.00;93458.47;5073625;28;20024;-83
2021/12/12 05:19:34;;;;;;;5.82;1.70;;;;;;;3.50;100.00;93460.28;5073582;28;19908;-83
2021/12/12 05:22:09;;;;;;;3.78;1.67;;;;;;;3.38;100.00;93474.75;5073570;28;20454;-82
2021/12/12 05:24:38;;;;;;;2.47;1.65;;;;;;;3.22;100.00;93484.03;5074313;28;20453;-83
2021/12/12 05:27:15;;;;;;;3.53;1.10;;;;;;;2.51;100.00;93484.50;5072357;28;20446;-82
2021/12/12 05:29:55;;;;;;;1.58;1.10;;;;;;;2.26;100.00;93474.28;5072925;28;20020;-82
2021/12/12 05:32:22;;;;;;;1.38;1.20;;;;;;;2.02;100.00;93485.72;5079620;28;20052;-81
2021/12/12 05:34:50;;;;;;;2.13;1.20;;;;;;;2.08;100.00;93486.56;5096030;28;20024;-82
2021/12/12 05:37:17;;;;;;;2.10;1.23;;;;;;;2.09;100.00;93490.75;5083730;28;20449;-83
2021/12/12 05:39:44;;;;;;;1.23;1.13;;;;;;;2.00;100.00;93490.78;5074492;28;20029;-83
2021/12/12 05:42:12;;;;;;;2.05;1.23;;;;;;;1.81;100.00;93500.84;5073286;28;20473;-82
2021/12/12 05:44:38;;;;;;;3.55;1.13;;;;;;;2.03;100.00;93509.38;5072140;28;20035;-83
2021/12/12 05:47:05;;;;;;;1.60;1.20;;;;;;;2.07;100.00;93516.47;5072209;28;20214;-81
2021/12/12 05:49:32;;;;;;;1.40;1.00;;;;;;;2.01;100.00;93521.72;5073617;28;20039;-82
2021/12/12 05:51:59;;;;;;;1.58;1.10;;;;;;;1.92;100.00;93537.81;5073265;28;20025;-82
2021/12/12 05:54:26;;;;;;;1.13;1.02;;;;;;;1.82;100.00;93534.44;5073098;28;20446;-81
2021/12/12 05:56:52;;;;;;;1.17;1.08;;;;;;;1.75;100.00;93545.47;5073059;28;20036;-81
2021/12/12 05:59:21;;;;;;;1.10;1.00;;;;;;;1.82;100.00;93553.91;5073011;28;20039;-82
2021/12/12 06:01:48;;;;;;;1.83;1.40;;;;;;;1.75;100.00;93556.91;5073244;28;20041;-81
2021/12/12 06:04:14;;;;;;;1.63;1.20;;;;;;;1.61;100.00;93552.19;5072792;28;20082;-81
2021/12/12 06:06:43;;;;;;;3.95;1.58;;;;;;;1.66;100.00;93554.28;5073138;28;20017;-82
2021/12/12 06:09:11;;;;;;;2.15;1.25;;;;;;;1.58;100.00;93553.09;5072904;28;20103;-84
2021/12/12 06:11:40;;;;;;;1.90;1.35;;;;;;;1.48;100.00;93550.44;5071811;28;20040;-82
2021/12/12 06:14:07;;;;;;;1.30;1.20;;;;;;;1.57;100.00;93567.66;5073853;28;20115;-82
2021/12/12 06:16:34;;;;;;;2.25;1.58;;;;;;;1.34;100.00;93569.81;5073749;28;20025;-83
2021/12/12 06:19:07;;;;;;;2.83;1.77;;;;;;;1.33;100.00;93576.34;5073714;28;20040;-83
2021/12/12 06:21:33;;;;;;;2.08;1.63;;;;;;;1.34;100.00;93583.19;5073605;28;20038;-81
2021/12/12 06:24:00;;;;;;;3.65;1.50;;;;;;;1.23;100.00;93575.63;5072993;28;20099;-82
2021/12/12 06:26:26;;;;;;;1.52;1.38;;;;;;;1.22;100.00;93582.16;5072669;28;20416;-81
2021/12/12 06:28:52;;;;;;;2.47;1.73;;;;;;;1.16;100.00;93583.97;5072766;28;20039;-82
2021/12/12 06:31:19;;;;;;;2.15;1.90;;;;;;;1.22;100.00;93602.81;5076920;28;20493;-83
2021/12/12 06:33:44;;;;;;;2.45;1.80;;;;;;;1.30;100.00;93625.38;5077629;28;20032;-83
2021/12/12 06:36:12;;;;;;;1.90;1.60;;;;;;;1.27;100.00;93637.72;5078035;28;20434;-84
2021/12/12 06:38:40;;;;;;;1.42;1.33;;;;;;;1.14;100.00;93627.16;5076970;28;20020;-84
2021/12/12 06:41:08;;;;;;;2.15;1.40;;;;;;;1.04;100.00;93628.34;5076718;28;20028;-84
2021/12/12 06:43:35;;;;;;;2.08;1.70;;;;;;;1.18;100.00;93632.34;5076498;28;20487;-84
2021/12/12 06:46:03;;;;;;;2.67;1.80;;;;;;;1.13;100.00;93641.72;5076054;28;20024;-83
2021/12/12 06:48:29;;;;;;;1.67;1.55;;;;;;;1.12;100.00;93642.91;5077188;28;20032;-83
2021/12/12 06:50:58;;;;;;;1.42;1.23;;;;;;;1.04;100.00;93644.38;5076504;28;20024;-84
2021/12/12 06:53:26;;;;;;;1.33;1.20;;;;;;;1.09;100.00;93641.13;5077203;28;20024;-84
2021/12/12 06:55:53;;;;;;;2.65;1.10;;;;;;;0.82;100.00;93647.19;5076256;28;20406;-82
2021/12/12 06:58:20;;;;;;;2.10;1.23;;;;;;;0.95;100.00;93666.50;5076389;28;20507;-82
2021/12/12 07:00:50;;;;;;;1.25;1.15;;;;;;;0.88;100.00;93663.38;5075199;28;20111;-84
2021/12/12 07:03:17;;;;;;;1.88;1.13;;;;;;;0.86;100.00;93657.72;5076376;28;20111;-83
2021/12/12 07:05:44;;;;;;;2.22;1.48;;;;;;;0.81;100.00;93654.47;5076202;28;20377;-81
2021/12/12 07:08:10;;;;;;;2.90;1.20;;;;;;;0.56;100.00;93652.03;5077098;28;20024;-85
2021/12/12 07:10:36;;;;;;;1.70;1.05;;;;;;;0.49;100.00;93669.06;5076896;28;20028;-83
2021/12/12 07:13:03;;;;;;;0.77;0.75;;;;;;;0.56;100.00;93668.06;5078987;28;20029;-84
2021/12/12 07:15:36;;;;;;;1.98;1.10;;;;;;;0.53;100.00;93671.63;5080867;28;20099;-84
2021/12/12 07:18:08;;;;;;;2.70;1.25;;;;;;;0.56;100.00;93678.75;5078582;28;20077;-85
2021/12/12 07:20:35;;;;;;;1.80;1.30;;;;;;;0.45;100.00;93674.56;5082496;28;20020;-84
2021/12/12 07:23:05;;;;;;;1.95;1.20;;;;;;;0.52;100.00;93689.56;5081767;28;20034;-81
2021/12/12 07:25:33;;;;;;;2.38;1.35;;;;;;;0.49;100.00;93691.19;5079789;28;20090;-86
2021/12/12 07:28:00;;;;;;;2.10;1.38;;;;;;;0.52;100.00;93707.50;5077397;28;20028;-82
2021/12/12 07:30:25;;;;;;;2.03;1.40;;;;;;;0.61;100.00;93743.00;5076871;28;20024;-84
2021/12/12 07:32:52;;;;;;;3.72;2.28;;;;;;;0.69;100.00;93732.78;5077997;28;20051;-83
2021/12/12 07:35:18;;;;;;;2.05;1.40;;;;;;;0.62;100.00;93727.72;5078230;28;20468;-85
2021/12/12 07:37:45;;;;;;;2.17;1.38;;;;;;;0.59;100.00;93726.69;5079576;28;20020;-84
2021/12/12 07:40:12;;;;;;;2.33;1.60;;;;;;;0.44;100.00;93709.72;5076228;28;20067;-83
2021/12/12 07:42:40;;;;;;;1.95;1.38;;;;;;;0.38;100.00;93738.16;5076176;28;20475;-82
2021/12/12 07:45:07;;;;;;;1.60;1.30;;;;;;;0.34;100.00;93751.63;5075113;28;20039;-82
2021/12/12 07:47:33;;;;;;;2.30;1.90;;;;;;;0.43;100.00;93765.03;5075563;28;20025;-82
2021/12/12 07:49:59;;;;;;;2.33;1.58;;;;;;;0.60;100.00;93780.84;5074742;28;20530;-82
2021/12/12 07:52:28;;;;;;;2.13;1.33;;;;;;;0.40;100.00;93765.91;5081257;28;20024;-85
2021/12/12 07:54:55;;;;;;;3.33;1.80;;;;;;;0.56;100.00;93778.31;5084449;28;20028;-83
2021/12/12 07:57:21;;;;;;;2.00;1.80;;;;;;;0.63;100.00;93771.97;5077999;28;20020;-84
2021/12/12 07:59:48;;;;;;;3.00;1.88;;;;;;;0.71;100.00;93770.50;5075684;28;20024;-84
2021/12/12 08:02:15;;;;;;;2.45;1.70;;;;;;;0.56;100.00;93790.91;5075966;28;20027;-85
2021/12/12 08:04:43;;;;;;;2.42;1.90;;;;;;;0.63;100.00;93796.72;5076845;28;20020;-85
2021/12/12 08:07:16;;;;;;;2.90;1.92;;;;;;;0.59;100.00;93795.38;5078891;28;20020;-83
2021/12/12 08:09:42;;;;;;;3.22;1.83;;;;;;;0.54;100.00;93788.69;5075366;28;20063;-82
2021/12/12 08:12:15;;;;;;;2.72;1.50;;;;;;;0.56;100.00;93798.91;5075723;28;20038;-83
2021/12/12 08:14:41;;;;;;;3.33;2.05;;;;;;;0.64;100.00;93800.91;5074050;28;20031;-84
2021/12/12 08:17:07;;;;;;;3.42;1.88;;;;;;;0.66;100.00;93803.13;5076245;28;20028;-84
2021/12/12 08:19:34;;;;;;;2.65;2.08;;;;;;;0.78;100.00;93806.91;5074582;28;20024;-83
2021/12/12 08:22:05;;;;;;;4.45;2.22;;;;;;;0.85;100.00;93801.28;5078632;28;20475;-84
2021/12/12 08:24:33;;;;;;;4.22;2.33;;;;;;;0.78;100.00;93796.94;5078248;28;20070;-83
2021/12/12 08:27:00;;;;;;;2.83;1.95;;;;;;;0.71;100.00;93815.91;5077431;28;20025;-84
2021/12/12 08:29:28;;;;;;;3.63;2.13;;;;;;;0.72;100.00;93819.31;5088697;28;20024;-84
2021/12/12 08:31:54;;;;;;;4.13;2.20;;;;;;;0.75;100.00;93816.53;5090509;28;20048;-84
2021/12/12 08:34:20;;;;;;;5.60;2.22;;;;;;;0.79;100.00;93809.13;5084063;28;20028;-85
2021/12/12 08:36:51;;;;;;;5.07;2.88;;;;;;;0.88;100.00;93821.03;5076231;28;20264;-85
2021/12/12 08:39:19;;;;;;;4.75;3.00;;;;;;;0.78;100.00;93817.56;5084423;28;20070;-85
2021/12/12 08:41:48;;;;;;;7.18;2.97;;;;;;;0.82;100.00;93831.53;5079354;28;20074;-88
2021/12/12 08:44:15;;;;;;;6.43;3.13;;;;;;;0.74;100.00;93830.31;5078877;28;20042;-83
2021/12/12 08:46:45;;;;;;;4.90;2.38;;;;;;;0.91;100.00;93825.47;5079104;28;20020;-84
2021/12/12 08:49:13;;;;;;;4.37;2.70;;;;;;;1.01;100.00;93840.38;5079143;28;20031;-83
2021/12/12 08:51:45;;;;;;;4.85;2.55;;;;;;;1.04;100.00;93834.16;5077430;28;20028;-84
2021/12/12 08:54:15;;;;;;;;;;;;;;;0.89;100.00;93843.91;5076638;28;20343;-84
2021/12/12 08:56:48;;;;;;;4.40;3.05;;;;;;;0.78;100.00;93845.03;5075225;28;19984;-82
2021/12/12 08:59:20;;;;;;;5.38;2.78;;;;;;;0.92;100.00;93851.75;5075633;28;20088;-83
2021/12/12 09:01:47;;;;;;;;;;;;;;;0.94;100.00;93859.34;5076187;28;20031;-85
2021/12/12 09:04:13;;;;;;;2.97;1.95;;;;;;;0.62;100.00;93856.66;5077891;28;19943;-84
2021/12/12 09:06:50;;;;;;;2.63;1.70;;;;;;;0.57;100.00;93862.56;5076621;28;20025;-82
2021/12/12 09:09:20;;;;;;;2.92;1.75;;;;;;;0.50;100.00;93868.94;5078316;28;20035;-83
2021/12/12 09:12:11;;;;;;;3.20;2.40;;;;;;;0.79;100.00;93873.25;5081449;28;20028;-86
2021/12/12 09:14:38;;;;;;;2.42;1.75;;;;;;;0.55;100.00;93875.63;5077742;28;20550;-82
2021/12/12 09:17:12;;;;;;;2.88;2.10;;;;;;;0.38;100.00;93877.72;5082739;28;20025;-86
2021/12/12 09:19:42;;;;;;;2.92;2.03;;;;;;;0.17;100.00;93877.31;5079521;28;20035;-78
2021/12/12 09:22:35;;;;;;;2.60;1.98;;;;;;;0.42;100.00;93877.63;5078553;28;20024;-85
2021/12/12 09:25:14;;;;;;;5.20;3.10;;;;;;;0.31;100.00;93894.00;5074559;28;20469;-85
2021/12/12 09:28:01;;;;;;;4.35;2.58;;;;;;;0.20;100.00;93890.97;5074005;28;20025;-83
2021/12/12 09:30:27;;;;;;;5.85;3.55;;;;;;;0.22;100.00;93891.28;5075072;28;20029;-83
2021/12/12 09:33:12;;;;;;;4.93;3.35;;;;;;;0.35;100.00;93880.53;5073282;28;20048;-85
2021/12/12 09:35:48;;;;;;;4.55;3.38;;;;;;;0.37;100.00;93894.19;5073926;28;20036;-73
2021/12/12 09:38:32;;;;;;;6.90;4.32;;;;;;;0.47;100.00;93899.16;5074455;28;20020;-84
2021/12/12 09:41:41;;;;;;;7.38;4.43;;;;;;;0.35;100.00;93899.97;5073948;28;20029;-85
2021/12/12 09:44:45;;;;;;;7.53;4.22;;;;;;;0.43;100.00;93903.16;5076755;28;20472;-85
2021/12/12 09:47:45;;;;;;;7.22;4.30;;;;;;;0.30;100.00;93903.94;5079813;28;20098;-82
2021/12/12 09:53:41;;;;;;;7.40;3.72;;;;;;;0.39;100.00;93916.59;5073187;28;20043;-78
2021/12/12 09:56:25;;;;;;;5.60;3.60;;;;;;;0.39;100.00;93927.28;5071917;28;20098;-81
2021/12/12 09:59:16;;;;;;;5.20;3.22;;;;;;;0.52;100.00;93929.16;5073228;28;20088;-80
2021/12/12 10:01:52;;;;;;;7.97;3.50;;;;;;;0.61;100.00;93921.22;5073570;28;20021;-80
2021/12/12 10:04:31;;;;;;;5.28;3.15;;;;;;;0.64;100.00;93933.69;5074225;28;20029;-78
2021/12/12 10:07:04;;;;;;;6.22;3.22;;;;;;;0.69;100.00;93933.13;5076916;28;20040;-78
2021/12/12 10:09:38;;;;;;;4.78;3.03;;;;;;;0.59;100.00;93918.97;5075856;28;20377;-78
2021/12/12 10:12:11;;;;;;;4.30;3.10;;;;;;;0.68;100.00;93926.28;5076681;28;20036;-66
2021/12/12 10:14:47;;;;;;;4.60;3.22;;;;;;;0.77;100.00;93934.38;5076898;28;20438;-80
2021/12/12 10:17:21;;;;;;;4.53;3.10;;;;;;;0.74;100.00;93929.91;5075433;28;20530;-76
2021/12/12 10:19:57;;;;;;;4.60;3.58;;;;;;;0.77;100.00;93929.03;5076860;28;20025;-76
2021/12/12 10:22:40;;;;;;;5.82;3.70;;;;;;;0.63;100.00;93930.28;5076379;28;20093;-76
2021/12/12 10:25:15;;;;;;;5.53;3.45;;;;;;;0.67;100.00;93930.16;5076982;28;20334;-75
2021/12/12 10:27:41;;;;;;;7.32;3.78;;;;;;;0.87;100.00;93935.16;5075056;28;20028;-76
2021/12/12 10:30:10;;;;;;;5.80;3.90;;;;;;;0.84;100.00;93933.38;5076141;28;20036;-75
2021/12/12 10:32:46;;;;;;;7.80;4.70;;;;;;;0.94;100.00;93931.50;5076158;28;20072;-75
2021/12/12 10:35:30;;;;;;;8.40;4.72;;;;;;;0.77;100.00;93933.63;5076531;28;20028;-77
2021/12/12 10:38:04;;;;;;;9.73;4.78;;;;;;;1.01;100.00;93941.94;5076693;28;20029;-77
2021/12/12 10:40:45;;;;;;;7.18;4.20;;;;;;;1.44;100.00;93942.25;5076444;28;20028;-77
2021/12/12 10:43:14;;;;;;;9.38;4.90;;;;;;;1.24;100.00;93958.66;5077142;28;20103;-82
2021/12/12 10:45:49;;;;;;;10.02;4.55;;;;;;;1.49;100.00;93963.81;5078186;28;20067;-83
2021/12/12 10:48:18;;;;;;;7.43;4.03;;;;;;;1.48;100.00;93966.94;5077783;28;20040;-84
2021/12/12 10:50:55;;;;;;;8.95;4.57;;;;;;;1.72;100.00;93974.44;5078574;28;20020;-84
2021/12/12 10:53:40;;;;;;;9.43;5.03;;;;;;;1.56;100.00;93962.06;5077499;28;20028;-84
2021/12/12 10:56:22;;;;;;;5.88;4.30;;;;;;;1.75;100.00;93960.94;5075786;28;20033;-82
2021/12/12 10:58:56;;;;;;;7.72;4.80;;;;;;;1.72;100.00;93972.53;5078687;28;20035;-80
2021/12/12 11:01:24;;;;;;;8.32;5.13;;;;;;;1.88;100.00;93973.44;5078371;28;20025;-84
2021/12/12 11:04:11;;;;;;;8.80;5.30;;;;;;;1.84;100.00;93966.31;5082639;28;20044;-82
2021/12/12 11:06:59;;;;;;;8.20;5.30;;;;;;;1.92;100.00;93966.75;5081201;28;20055;-81
2021/12/12 11:09:29;;;;;;;7.50;5.10;;;;;;;2.00;100.00;93972.59;5081125;28;20115;-79
2021/12/12 11:12:18;;;;;;;7.72;5.20;;;;;;;1.95;100.00;93981.19;5077414;28;20064;-80
2021/12/12 11:15:03;;;;;;;8.63;5.28;;;;;;;2.07;100.00;93983.00;5077872;28;20028;-82
2021/12/12 11:17:43;;;;;;;8.63;5.45;;;;;;;1.92;100.00;93982.81;5078000;28;20037;-83
2021/12/12 11:20:19;;;;;;;9.18;5.78;;;;;;;2.12;100.00;93987.78;5077270;28;20497;-81
2021/12/12 11:22:51;;;;;;;7.05;4.90;;;;;;;1.96;100.00;94001.44;5077605;28;20028;-79
2021/12/12 11:25:22;;;;;;;11.63;6.10;;;;;;;1.76;100.00;93989.19;5088453;28;20614;-82
2021/12/12 11:28:16;;;;;;;74.18;41.03;;;;;;;2.05;100.00;93982.72;5084297;28;20028;-81
2021/12/12 11:30:47;;;;;;;85.80;44.63;;;;;;;2.24;100.00;93991.53;5075846;28;20025;-81
2021/12/12 11:33:16;;;;;;;15.77;10.27;;;;;;;1.79;100.00;93985.63;5075375;28;20063;-82
2021/12/12 11:35:45;;;;;;;7.03;4.68;;;;;;;1.56;100.00;93988.81;5074043;28;20024;-84
2021/12/12 11:38:26;;;;;;;8.95;5.70;;;;;;;1.39;100.00;93986.38;5075348;28;20028;-84
2021/12/12 11:41:28;;;;;;;9.00;5.23;;;;;;;1.05;100.00;93985.31;5075954;28;20036;-84
2021/12/12 11:44:21;;;;;;;7.72;5.53;;;;;;;1.07;100.00;93984.88;5071649;28;20040;-84
2021/12/12 11:46:53;;;;;;;15.48;6.25;;;;;;;0.71;100.00;93978.88;5076076;28;20523;-83
2021/12/12 11:49:31;;;;;;;9.77;6.43;;;;;;;0.60;100.00;93978.47;5078285;28;20024;-86
2021/12/12 11:52:08;;;;;;;11.85;7.45;;;;;;;0.39;100.00;93972.69;5077926;28;20052;-86
2021/12/12 11:54:52;;;;;;;8.13;5.80;;;;;;;0.50;100.00;93980.34;5079237;28;20063;-79
2021/12/12 11:57:27;;;;;;;7.82;5.18;;;;;;;0.47;100.00;93981.94;5084169;28;20024;-81
2021/12/12 11:59:55;;;;;;;8.75;5.47;;;;;;;0.44;100.00;93998.09;5080505;28;20024;-86
2021/12/12 12:03:00;;;;;;;8.65;5.60;;;;;;;0.48;100.00;93999.47;5082775;28;20024;-86
2021/12/12 12:05:34;;;;;;;9.02;5.85;;;;;;;0.73;100.00;94000.53;5081638;28;20084;-86
2021/12/12 12:08:12;;;;;;;8.13;5.57;;;;;;;0.58;100.00;94002.22;5087127;28;20025;-87
2021/12/12 12:11:06;;;;;;;8.10;5.03;;;;;;;1.73;100.00;94000.75;5077348;28;20031;-68
2021/12/12 12:13:53;;;;;;;8.95;4.65;;;;;;;2.46;100.00;94007.47;5074195;28;20020;-67
2021/12/12 12:16:19;;;;;;;7.45;3.85;;;;;;;2.67;100.00;94005.09;5072839;28;20091;-67